sensor_id;sensor_type;location;lat;lon;timestamp;P1;durP1;ratioP1;P2;durP2;ratioP2
57307;SDS011;43152;50.968;18.214;2023-06-14T00:07:04;6.40;;;2.20;;
57307;SDS011;43152;50.968;18.214;2023-06-14T00:16:50;4.10;;;1.20;;
57307;SDS011;43152;50.968;18.214;2023-06-14T00:26:36;7.70;;;3.80;;
57307;SDS011;43152;50.968;18.214;2023-06-14T00:36:18;10.50;;;3.60;;
57307;SDS011;43152;50.968;18.214;2023-06-14T00:46:01;5.90;;;2.90;;
57307;SDS011;43152;50.968;18.214;2023-06-14T00:55:43;5.40;;;1.30;;
57307;SDS011;43152;50.968;18.214;2023-06-14T01:05:27;5.40;;;1.80;;
57307;SDS011;43152;50.968;18.214;2023-06-14T01:15:45;7.80;;;2.30;;
57307;SDS011;43152;50.968;18.214;2023-06-14T01:25:37;7.60;;;1.90;;
57307;SDS011;43152;50.968;18.214;2023-06-14T01:35:28;6.70;;;1.80;;
57307;SDS011;43152;50.968;18.214;2023-06-14T01:45:12;7.20;;;2.60;;
57307;SDS011;43152;50.968;18.214;2023-06-14T01:54:54;4.60;;;1.30;;
57307;SDS011;43152;50.968;18.214;2023-06-14T02:04:41;9.90;;;2.00;;
57307;SDS011;43152;50.968;18.214;2023-06-14T02:14:26;9.80;;;1.60;;
57307;SDS011;43152;50.968;18.214;2023-06-14T02:24:10;5.20;;;2.20;;
57307;SDS011;43152;50.968;18.214;2023-06-14T02:33:56;6.20;;;1.90;;
57307;SDS011;43152;50.968;18.214;2023-06-14T02:43:38;6.80;;;2.70;;
57307;SDS011;43152;50.968;18.214;2023-06-14T02:53:22;8.40;;;2.30;;
57307;SDS011;43152;50.968;18.214;2023-06-14T03:03:06;8.40;;;3.00;;
57307;SDS011;43152;50.968;18.214;2023-06-14T03:13:10;11.60;;;5.60;;
57307;SDS011;43152;50.968;18.214;2023-06-14T03:22:55;21.00;;;6.70;;
57307;SDS011;43152;50.968;18.214;2023-06-14T03:32:38;19.10;;;5.70;;
57307;SDS011;43152;50.968;18.214;2023-06-14T03:42:21;12.20;;;5.70;;
57307;SDS011;43152;50.968;18.214;2023-06-14T03:52:03;8.20;;;3.80;;
57307;SDS011;43152;50.968;18.214;2023-06-14T04:01:49;11.90;;;6.10;;
57307;SDS011;43152;50.968;18.214;2023-06-14T04:11:34;13.80;;;7.70;;
57307;SDS011;43152;50.968;18.214;2023-06-14T04:21:20;12.30;;;5.10;;
57307;SDS011;43152;50.968;18.214;2023-06-14T04:31:06;19.30;;;10.00;;
57307;SDS011;43152;50.968;18.214;2023-06-14T04:41:04;13.30;;;7.50;;
57307;SDS011;43152;50.968;18.214;2023-06-14T04:50:48;16.30;;;6.70;;
57307;SDS011;43152;50.968;18.214;2023-06-14T05:07:57;11.30;;;6.00;;
57307;SDS011;43152;50.968;18.214;2023-06-14T05:17:41;13.10;;;5.90;;
57307;SDS011;43152;50.968;18.214;2023-06-14T05:27:26;20.20;;;5.80;;
57307;SDS011;43152;50.968;18.214;2023-06-14T05:37:12;11.90;;;5.60;;
57307;SDS011;43152;50.968;18.214;2023-06-14T05:46:57;19.80;;;5.70;;
57307;SDS011;43152;50.968;18.214;2023-06-14T05:56:39;14.70;;;5.90;;
57307;SDS011;43152;50.968;18.214;2023-06-14T06:06:23;11.80;;;5.60;;
57307;SDS011;43152;50.968;18.214;2023-06-14T06:16:08;14.60;;;6.40;;
57307;SDS011;43152;50.968;18.214;2023-06-14T06:25:51;9.00;;;5.30;;
57307;SDS011;43152;50.968;18.214;2023-06-14T06:49:11;16.40;;;5.50;;
57307;SDS011;43152;50.968;18.214;2023-06-14T06:58:59;7.70;;;2.60;;
57307;SDS011;43152;50.968;18.214;2023-06-14T07:08:45;10.40;;;4.50;;
57307;SDS011;43152;50.968;18.214;2023-06-14T07:18:31;12.00;;;5.60;;
57307;SDS011;43152;50.968;18.214;2023-06-14T07:28:14;9.50;;;4.50;;
57307;SDS011;43152;50.968;18.214;2023-06-14T07:37:56;7.40;;;3.90;;
57307;SDS011;43152;50.968;18.214;2023-06-14T07:47:42;9.30;;;3.80;;
57307;SDS011;43152;50.968;18.214;2023-06-14T07:57:25;7.50;;;3.20;;
57307;SDS011;43152;50.968;18.214;2023-06-14T08:07:08;7.00;;;3.20;;
57307;SDS011;43152;50.968;18.214;2023-06-14T08:16:51;9.30;;;4.10;;
57307;SDS011;43152;50.968;18.214;2023-06-14T08:26:38;12.10;;;4.30;;
57307;SDS011;43152;50.968;18.214;2023-06-14T08:36:24;7.60;;;3.90;;
57307;SDS011;43152;50.968;18.214;2023-06-14T08:46:18;8.00;;;3.20;;
57307;SDS011;43152;50.968;18.214;2023-06-14T08:56:08;14.50;;;4.00;;
57307;SDS011;43152;50.968;18.214;2023-06-14T09:06:06;7.50;;;4.10;;
57307;SDS011;43152;50.968;18.214;2023-06-14T09:15:52;9.10;;;3.20;;
57307;SDS011;43152;50.968;18.214;2023-06-14T09:25:43;3.60;;;2.10;;
57307;SDS011;43152;50.968;18.214;2023-06-14T09:35:28;7.50;;;4.00;;
57307;SDS011;43152;50.968;18.214;2023-06-14T09:45:13;10.60;;;3.00;;
57307;SDS011;43152;50.968;18.214;2023-06-14T09:54:57;5.30;;;3.00;;
57307;SDS011;43152;50.968;18.214;2023-06-14T10:04:53;6.50;;;2.80;;
57307;SDS011;43152;50.968;18.214;2023-06-14T10:14:49;8.60;;;2.60;;
57307;SDS011;43152;50.968;18.214;2023-06-14T10:25:26;6.10;;;2.90;;
57307;SDS011;43152;50.968;18.214;2023-06-14T10:35:35;7.70;;;3.40;;
57307;SDS011;43152;50.968;18.214;2023-06-14T10:45:33;6.20;;;3.30;;
57307;SDS011;43152;50.968;18.214;2023-06-14T10:55:20;4.70;;;2.40;;
57307;SDS011;43152;50.968;18.214;2023-06-14T11:05:35;6.00;;;2.70;;
57307;SDS011;43152;50.968;18.214;2023-06-14T11:15:45;5.90;;;2.70;;
57307;SDS011;43152;50.968;18.214;2023-06-14T11:25:30;6.40;;;2.50;;
57307;SDS011;43152;50.968;18.214;2023-06-14T11:35:14;7.60;;;2.20;;
57307;SDS011;43152;50.968;18.214;2023-06-14T11:45:03;0.30;;;0.30;;
57307;SDS011;43152;50.968;18.214;2023-06-14T11:54:50;16.40;;;2.40;;
57307;SDS011;43152;50.968;18.214;2023-06-14T12:04:40;5.60;;;2.10;;
57307;SDS011;43152;50.968;18.214;2023-06-14T12:14:37;11.10;;;3.60;;
57307;SDS011;43152;50.968;18.214;2023-06-14T12:24:27;3.60;;;2.10;;
57307;SDS011;43152;50.968;18.214;2023-06-14T12:34:12;8.20;;;4.10;;
57307;SDS011;43152;50.968;18.214;2023-06-14T12:44:02;11.00;;;4.30;;
57307;SDS011;43152;50.968;18.214;2023-06-14T12:53:50;10.90;;;3.70;;
57307;SDS011;43152;50.968;18.214;2023-06-14T13:03:33;8.00;;;4.00;;
57307;SDS011;43152;50.968;18.214;2023-06-14T13:13:18;5.60;;;2.30;;
57307;SDS011;43152;50.968;18.214;2023-06-14T13:23:04;6.40;;;2.60;;
57307;SDS011;43152;50.968;18.214;2023-06-14T13:32:52;3.70;;;1.50;;
57307;SDS011;43152;50.968;18.214;2023-06-14T13:42:36;5.90;;;2.20;;
57307;SDS011;43152;50.968;18.214;2023-06-14T13:52:19;6.90;;;2.00;;
57307;SDS011;43152;50.968;18.214;2023-06-14T14:02:04;11.40;;;1.40;;
57307;SDS011;43152;50.968;18.214;2023-06-14T14:11:48;3.70;;;1.70;;
57307;SDS011;43152;50.968;18.214;2023-06-14T14:21:32;8.90;;;1.90;;
57307;SDS011;43152;50.968;18.214;2023-06-14T14:31:15;5.40;;;1.50;;
57307;SDS011;43152;50.968;18.214;2023-06-14T14:40:58;5.00;;;1.70;;
57307;SDS011;43152;50.968;18.214;2023-06-14T14:50:41;8.00;;;3.10;;
57307;SDS011;43152;50.968;18.214;2023-06-14T15:00:26;6.90;;;2.60;;
57307;SDS011;43152;50.968;18.214;2023-06-14T15:10:10;7.30;;;3.20;;
57307;SDS011;43152;50.968;18.214;2023-06-14T15:19:53;8.70;;;3.50;;
57307;SDS011;43152;50.968;18.214;2023-06-14T15:29:43;6.90;;;2.90;;
57307;SDS011;43152;50.968;18.214;2023-06-14T15:39:28;16.40;;;5.30;;
57307;SDS011;43152;50.968;18.214;2023-06-14T15:49:14;9.20;;;4.20;;
57307;SDS011;43152;50.968;18.214;2023-06-14T15:58:57;13.20;;;7.60;;
57307;SDS011;43152;50.968;18.214;2023-06-14T16:08:43;15.40;;;8.70;;
57307;SDS011;43152;50.968;18.214;2023-06-14T16:18:26;9.20;;;6.50;;
57307;SDS011;43152;50.968;18.214;2023-06-14T16:28:13;19.90;;;6.50;;
57307;SDS011;43152;50.968;18.214;2023-06-14T16:37:57;9.90;;;4.70;;
57307;SDS011;43152;50.968;18.214;2023-06-14T16:47:41;9.70;;;6.10;;
57307;SDS011;43152;50.968;18.214;2023-06-14T16:57:24;9.90;;;5.60;;
57307;SDS011;43152;50.968;18.214;2023-06-14T17:07:06;14.20;;;5.80;;
57307;SDS011;43152;50.968;18.214;2023-06-14T17:16:48;11.30;;;4.20;;
57307;SDS011;43152;50.968;18.214;2023-06-14T17:26:34;8.60;;;5.50;;
57307;SDS011;43152;50.968;18.214;2023-06-14T17:36:16;11.80;;;5.00;;
57307;SDS011;43152;50.968;18.214;2023-06-14T17:46:02;13.70;;;3.80;;
57307;SDS011;43152;50.968;18.214;2023-06-14T17:55:50;15.00;;;9.00;;
57307;SDS011;43152;50.968;18.214;2023-06-14T18:05:32;12.70;;;6.30;;
57307;SDS011;43152;50.968;18.214;2023-06-14T18:15:15;15.10;;;6.90;;
57307;SDS011;43152;50.968;18.214;2023-06-14T18:24:58;10.50;;;3.70;;
57307;SDS011;43152;50.968;18.214;2023-06-14T18:34:41;12.50;;;6.40;;
57307;SDS011;43152;50.968;18.214;2023-06-14T18:44:24;12.90;;;7.10;;
57307;SDS011;43152;50.968;18.214;2023-06-14T18:54:08;15.50;;;8.40;;
57307;SDS011;43152;50.968;18.214;2023-06-14T19:03:54;19.30;;;10.10;;
57307;SDS011;43152;50.968;18.214;2023-06-14T19:13:40;12.20;;;6.60;;
57307;SDS011;43152;50.968;18.214;2023-06-14T19:23:23;18.30;;;7.90;;
57307;SDS011;43152;50.968;18.214;2023-06-14T19:33:07;18.30;;;8.90;;
57307;SDS011;43152;50.968;18.214;2023-06-14T19:42:51;6.20;;;2.60;;
57307;SDS011;43152;50.968;18.214;2023-06-14T19:52:35;14.40;;;8.30;;
57307;SDS011;43152;50.968;18.214;2023-06-14T20:02:19;13.90;;;9.60;;
57307;SDS011;43152;50.968;18.214;2023-06-14T20:12:02;22.60;;;13.20;;
57307;SDS011;43152;50.968;18.214;2023-06-14T20:21:45;41.40;;;17.70;;
57307;SDS011;43152;50.968;18.214;2023-06-14T20:31:28;24.10;;;13.70;;
57307;SDS011;43152;50.968;18.214;2023-06-14T20:41:11;11.20;;;7.00;;
57307;SDS011;43152;50.968;18.214;2023-06-14T20:50:57;20.50;;;10.60;;
57307;SDS011;43152;50.968;18.214;2023-06-14T21:00:43;22.10;;;12.90;;
57307;SDS011;43152;50.968;18.214;2023-06-14T21:10:27;19.20;;;9.50;;
57307;SDS011;43152;50.968;18.214;2023-06-14T21:20:11;30.50;;;8.30;;
57307;SDS011;43152;50.968;18.214;2023-06-14T21:29:54;22.30;;;9.80;;
57307;SDS011;43152;50.968;18.214;2023-06-14T21:39:38;10.40;;;6.40;;
57307;SDS011;43152;50.968;18.214;2023-06-14T21:49:33;8.50;;;4.50;;
57307;SDS011;43152;50.968;18.214;2023-06-14T21:59:15;10.60;;;5.80;;
57307;SDS011;43152;50.968;18.214;2023-06-14T22:22:18;28.90;;;12.90;;
57307;SDS011;43152;50.968;18.214;2023-06-14T22:32:14;15.10;;;9.70;;
57307;SDS011;43152;50.968;18.214;2023-06-14T22:41:57;19.30;;;11.00;;
57307;SDS011;43152;50.968;18.214;2023-06-14T22:51:51;10.10;;;5.60;;
57307;SDS011;43152;50.968;18.214;2023-06-14T23:01:38;17.10;;;10.40;;
57307;SDS011;43152;50.968;18.214;2023-06-14T23:11:21;25.60;;;10.40;;
57307;SDS011;43152;50.968;18.214;2023-06-14T23:21:09;9.30;;;5.90;;
57307;SDS011;43152;50.968;18.214;2023-06-14T23:31:02;10.00;;;5.80;;
57307;SDS011;43152;50.968;18.214;2023-06-14T23:40:57;23.20;;;13.00;;
57307;SDS011;43152;50.968;18.214;2023-06-14T23:50:46;19.70;;;13.00;;
